sensor_id;sensor_type;location;lat;lon;timestamp;P1;durP1;ratioP1;P2;durP2;ratioP2
40729;SDS011;26418;50.070;8.436;2023-07-30T00:01:53;2.90;;;1.90;;
40729;SDS011;26418;50.070;8.436;2023-07-30T00:04:19;2.45;;;1.63;;
40729;SDS011;26418;50.070;8.436;2023-07-30T00:06:44;3.60;;;1.80;;
40729;SDS011;26418;50.070;8.436;2023-07-30T00:09:09;3.05;;;1.80;;
40729;SDS011;26418;50.070;8.436;2023-07-30T00:11:35;3.17;;;1.92;;
40729;SDS011;26418;50.070;8.436;2023-07-30T00:14:01;1.90;;;1.75;;
40729;SDS011;26418;50.070;8.436;2023-07-30T00:16:26;3.92;;;2.17;;
40729;SDS011;26418;50.070;8.436;2023-07-30T00:18:52;3.85;;;2.20;;
40729;SDS011;26418;50.070;8.436;2023-07-30T00:21:17;2.78;;;2.05;;
40729;SDS011;26418;50.070;8.436;2023-07-30T00:23:43;3.92;;;2.17;;
40729;SDS011;26418;50.070;8.436;2023-07-30T00:26:08;3.25;;;1.85;;
40729;SDS011;26418;50.070;8.436;2023-07-30T00:28:34;2.70;;;2.05;;
40729;SDS011;26418;50.070;8.436;2023-07-30T00:30:59;2.28;;;1.80;;
40729;SDS011;26418;50.070;8.436;2023-07-30T00:33:25;6.35;;;1.95;;
40729;SDS011;26418;50.070;8.436;2023-07-30T00:35:51;4.60;;;2.40;;
40729;SDS011;26418;50.070;8.436;2023-07-30T00:38:17;5.43;;;1.90;;
40729;SDS011;26418;50.070;8.436;2023-07-30T00:40:43;4.40;;;2.50;;
40729;SDS011;26418;50.070;8.436;2023-07-30T00:43:09;4.22;;;2.00;;
40729;SDS011;26418;50.070;8.436;2023-07-30T00:45:35;3.45;;;2.50;;
40729;SDS011;26418;50.070;8.436;2023-07-30T00:48:01;3.97;;;2.00;;
40729;SDS011;26418;50.070;8.436;2023-07-30T00:50:27;4.60;;;2.38;;
40729;SDS011;26418;50.070;8.436;2023-07-30T00:52:53;4.30;;;2.58;;
40729;SDS011;26418;50.070;8.436;2023-07-30T00:55:19;3.65;;;2.10;;
40729;SDS011;26418;50.070;8.436;2023-07-30T00:57:45;2.38;;;2.00;;
40729;SDS011;26418;50.070;8.436;2023-07-30T01:00:11;3.13;;;2.38;;
40729;SDS011;26418;50.070;8.436;2023-07-30T01:02:37;3.00;;;2.03;;
40729;SDS011;26418;50.070;8.436;2023-07-30T01:05:03;2.85;;;1.77;;
40729;SDS011;26418;50.070;8.436;2023-07-30T01:07:32;6.53;;;2.40;;
40729;SDS011;26418;50.070;8.436;2023-07-30T01:09:58;2.63;;;2.03;;
40729;SDS011;26418;50.070;8.436;2023-07-30T01:12:25;5.20;;;2.17;;
40729;SDS011;26418;50.070;8.436;2023-07-30T01:14:51;2.42;;;2.00;;
40729;SDS011;26418;50.070;8.436;2023-07-30T01:17:19;6.70;;;2.03;;
40729;SDS011;26418;50.070;8.436;2023-07-30T01:19:46;2.40;;;2.17;;
40729;SDS011;26418;50.070;8.436;2023-07-30T01:22:12;3.75;;;2.65;;
40729;SDS011;26418;50.070;8.436;2023-07-30T01:24:37;2.63;;;1.90;;
40729;SDS011;26418;50.070;8.436;2023-07-30T01:27:04;4.05;;;2.33;;
40729;SDS011;26418;50.070;8.436;2023-07-30T01:29:33;3.00;;;2.40;;
40729;SDS011;26418;50.070;8.436;2023-07-30T01:32:11;2.40;;;2.00;;
40729;SDS011;26418;50.070;8.436;2023-07-30T01:34:37;4.97;;;1.63;;
40729;SDS011;26418;50.070;8.436;2023-07-30T01:37:05;4.25;;;2.10;;
40729;SDS011;26418;50.070;8.436;2023-07-30T01:39:35;4.90;;;1.98;;
40729;SDS011;26418;50.070;8.436;2023-07-30T01:42:04;4.50;;;1.98;;
40729;SDS011;26418;50.070;8.436;2023-07-30T01:44:30;3.05;;;1.77;;
40729;SDS011;26418;50.070;8.436;2023-07-30T01:46:56;5.28;;;2.33;;
40729;SDS011;26418;50.070;8.436;2023-07-30T01:49:21;2.55;;;1.50;;
40729;SDS011;26418;50.070;8.436;2023-07-30T01:51:47;2.22;;;2.03;;
40729;SDS011;26418;50.070;8.436;2023-07-30T01:54:13;2.92;;;1.85;;
40729;SDS011;26418;50.070;8.436;2023-07-30T01:56:39;3.05;;;2.10;;
40729;SDS011;26418;50.070;8.436;2023-07-30T01:59:04;2.50;;;1.95;;
40729;SDS011;26418;50.070;8.436;2023-07-30T02:01:30;2.90;;;2.00;;
40729;SDS011;26418;50.070;8.436;2023-07-30T02:03:56;3.47;;;2.13;;
40729;SDS011;26418;50.070;8.436;2023-07-30T02:06:21;4.30;;;1.92;;
40729;SDS011;26418;50.070;8.436;2023-07-30T02:08:47;3.25;;;1.60;;
40729;SDS011;26418;50.070;8.436;2023-07-30T02:11:13;3.47;;;1.80;;
40729;SDS011;26418;50.070;8.436;2023-07-30T02:13:38;5.85;;;2.00;;
40729;SDS011;26418;50.070;8.436;2023-07-30T02:16:04;3.47;;;1.63;;
40729;SDS011;26418;50.070;8.436;2023-07-30T02:18:29;3.05;;;2.08;;
40729;SDS011;26418;50.070;8.436;2023-07-30T02:20:55;9.13;;;2.10;;
40729;SDS011;26418;50.070;8.436;2023-07-30T02:23:21;2.53;;;1.88;;
40729;SDS011;26418;50.070;8.436;2023-07-30T02:25:46;4.18;;;1.90;;
40729;SDS011;26418;50.070;8.436;2023-07-30T02:28:12;4.05;;;1.85;;
40729;SDS011;26418;50.070;8.436;2023-07-30T02:30:37;3.28;;;1.95;;
40729;SDS011;26418;50.070;8.436;2023-07-30T02:33:03;6.60;;;2.25;;
40729;SDS011;26418;50.070;8.436;2023-07-30T02:35:28;2.33;;;2.13;;
40729;SDS011;26418;50.070;8.436;2023-07-30T02:37:54;2.58;;;2.05;;
40729;SDS011;26418;50.070;8.436;2023-07-30T02:40:19;5.72;;;2.08;;
40729;SDS011;26418;50.070;8.436;2023-07-30T02:42:45;2.42;;;1.92;;
40729;SDS011;26418;50.070;8.436;2023-07-30T02:45:10;3.60;;;2.38;;
40729;SDS011;26418;50.070;8.436;2023-07-30T02:47:36;2.58;;;1.75;;
40729;SDS011;26418;50.070;8.436;2023-07-30T02:50:04;2.65;;;2.00;;
40729;SDS011;26418;50.070;8.436;2023-07-30T02:52:31;2.13;;;1.60;;
40729;SDS011;26418;50.070;8.436;2023-07-30T02:54:57;3.25;;;1.95;;
40729;SDS011;26418;50.070;8.436;2023-07-30T02:57:22;3.03;;;2.17;;
40729;SDS011;26418;50.070;8.436;2023-07-30T02:59:48;2.83;;;2.10;;
40729;SDS011;26418;50.070;8.436;2023-07-30T03:02:13;1.98;;;1.77;;
40729;SDS011;26418;50.070;8.436;2023-07-30T03:04:39;2.72;;;2.13;;
40729;SDS011;26418;50.070;8.436;2023-07-30T03:07:05;3.78;;;2.20;;
40729;SDS011;26418;50.070;8.436;2023-07-30T03:09:31;3.58;;;1.88;;
40729;SDS011;26418;50.070;8.436;2023-07-30T03:11:57;3.00;;;1.70;;
40729;SDS011;26418;50.070;8.436;2023-07-30T03:14:24;1.85;;;1.45;;
40729;SDS011;26418;50.070;8.436;2023-07-30T03:16:50;3.50;;;1.92;;
40729;SDS011;26418;50.070;8.436;2023-07-30T03:19:15;2.15;;;1.95;;
40729;SDS011;26418;50.070;8.436;2023-07-30T03:21:41;1.98;;;1.80;;
40729;SDS011;26418;50.070;8.436;2023-07-30T03:24:07;2.72;;;2.10;;
40729;SDS011;26418;50.070;8.436;2023-07-30T03:26:33;2.67;;;1.73;;
40729;SDS011;26418;50.070;8.436;2023-07-30T03:28:58;1.65;;;1.52;;
40729;SDS011;26418;50.070;8.436;2023-07-30T03:31:24;2.78;;;1.88;;
40729;SDS011;26418;50.070;8.436;2023-07-30T03:33:50;2.00;;;1.80;;
40729;SDS011;26418;50.070;8.436;2023-07-30T03:36:15;3.22;;;1.90;;
40729;SDS011;26418;50.070;8.436;2023-07-30T03:38:41;7.05;;;2.08;;
40729;SDS011;26418;50.070;8.436;2023-07-30T03:41:07;2.63;;;1.92;;
40729;SDS011;26418;50.070;8.436;2023-07-30T03:43:34;3.38;;;1.80;;
40729;SDS011;26418;50.070;8.436;2023-07-30T03:46:00;4.10;;;1.75;;
40729;SDS011;26418;50.070;8.436;2023-07-30T03:48:25;4.45;;;2.00;;
40729;SDS011;26418;50.070;8.436;2023-07-30T03:50:54;1.77;;;1.67;;
40729;SDS011;26418;50.070;8.436;2023-07-30T03:53:20;11.20;;;2.05;;
40729;SDS011;26418;50.070;8.436;2023-07-30T03:55:46;2.50;;;1.58;;
40729;SDS011;26418;50.070;8.436;2023-07-30T03:58:11;1.63;;;1.30;;
40729;SDS011;26418;50.070;8.436;2023-07-30T04:00:37;1.80;;;1.42;;
40729;SDS011;26418;50.070;8.436;2023-07-30T04:03:03;2.70;;;1.58;;
40729;SDS011;26418;50.070;8.436;2023-07-30T04:05:29;1.67;;;1.33;;
40729;SDS011;26418;50.070;8.436;2023-07-30T04:07:55;3.15;;;1.80;;
40729;SDS011;26418;50.070;8.436;2023-07-30T04:10:20;3.38;;;1.35;;
40729;SDS011;26418;50.070;8.436;2023-07-30T04:12:46;2.35;;;1.92;;
40729;SDS011;26418;50.070;8.436;2023-07-30T04:15:12;2.35;;;1.80;;
40729;SDS011;26418;50.070;8.436;2023-07-30T04:17:37;2.60;;;1.88;;
40729;SDS011;26418;50.070;8.436;2023-07-30T04:20:04;2.50;;;1.35;;
40729;SDS011;26418;50.070;8.436;2023-07-30T04:22:30;2.83;;;1.90;;
40729;SDS011;26418;50.070;8.436;2023-07-30T04:24:56;2.03;;;1.50;;
40729;SDS011;26418;50.070;8.436;2023-07-30T04:27:22;5.75;;;2.42;;
40729;SDS011;26418;50.070;8.436;2023-07-30T04:29:47;3.25;;;2.20;;
40729;SDS011;26418;50.070;8.436;2023-07-30T04:32:13;2.70;;;2.20;;
40729;SDS011;26418;50.070;8.436;2023-07-30T04:34:39;5.25;;;2.20;;
40729;SDS011;26418;50.070;8.436;2023-07-30T04:37:05;2.30;;;1.35;;
40729;SDS011;26418;50.070;8.436;2023-07-30T04:39:34;3.22;;;1.73;;
40729;SDS011;26418;50.070;8.436;2023-07-30T04:42:00;3.00;;;1.63;;
40729;SDS011;26418;50.070;8.436;2023-07-30T04:44:26;1.52;;;1.30;;
40729;SDS011;26418;50.070;8.436;2023-07-30T04:46:51;2.42;;;2.03;;
40729;SDS011;26418;50.070;8.436;2023-07-30T04:49:17;2.03;;;1.77;;
40729;SDS011;26418;50.070;8.436;2023-07-30T04:51:42;2.65;;;1.70;;
40729;SDS011;26418;50.070;8.436;2023-07-30T04:54:08;3.20;;;2.17;;
40729;SDS011;26418;50.070;8.436;2023-07-30T04:56:33;2.78;;;1.80;;
40729;SDS011;26418;50.070;8.436;2023-07-30T04:58:59;2.05;;;1.58;;
40729;SDS011;26418;50.070;8.436;2023-07-30T05:01:26;1.88;;;1.55;;
40729;SDS011;26418;50.070;8.436;2023-07-30T05:03:51;2.55;;;1.88;;
40729;SDS011;26418;50.070;8.436;2023-07-30T05:06:17;1.38;;;1.23;;
40729;SDS011;26418;50.070;8.436;2023-07-30T05:08:42;2.40;;;1.70;;
40729;SDS011;26418;50.070;8.436;2023-07-30T05:11:08;2.38;;;1.80;;
40729;SDS011;26418;50.070;8.436;2023-07-30T05:13:33;1.48;;;1.17;;
40729;SDS011;26418;50.070;8.436;2023-07-30T05:15:59;1.88;;;1.45;;
40729;SDS011;26418;50.070;8.436;2023-07-30T05:18:24;2.63;;;1.63;;
40729;SDS011;26418;50.070;8.436;2023-07-30T05:20:50;2.33;;;1.25;;
40729;SDS011;26418;50.070;8.436;2023-07-30T05:23:15;3.22;;;1.73;;
40729;SDS011;26418;50.070;8.436;2023-07-30T05:25:41;5.30;;;2.20;;
40729;SDS011;26418;50.070;8.436;2023-07-30T05:28:07;3.63;;;1.75;;
40729;SDS011;26418;50.070;8.436;2023-07-30T05:30:32;1.92;;;1.27;;
40729;SDS011;26418;50.070;8.436;2023-07-30T05:32:58;2.78;;;1.30;;
40729;SDS011;26418;50.070;8.436;2023-07-30T05:35:23;1.98;;;1.05;;
40729;SDS011;26418;50.070;8.436;2023-07-30T05:37:49;2.25;;;1.38;;
40729;SDS011;26418;50.070;8.436;2023-07-30T05:40:15;1.45;;;1.08;;
40729;SDS011;26418;50.070;8.436;2023-07-30T05:42:40;1.70;;;1.20;;
40729;SDS011;26418;50.070;8.436;2023-07-30T05:45:06;1.70;;;1.13;;
40729;SDS011;26418;50.070;8.436;2023-07-30T05:47:33;3.00;;;1.75;;
40729;SDS011;26418;50.070;8.436;2023-07-30T05:49:58;4.00;;;1.67;;
40729;SDS011;26418;50.070;8.436;2023-07-30T05:52:24;2.15;;;1.30;;
40729;SDS011;26418;50.070;8.436;2023-07-30T05:54:49;2.35;;;1.55;;
40729;SDS011;26418;50.070;8.436;2023-07-30T05:57:15;1.25;;;1.15;;
40729;SDS011;26418;50.070;8.436;2023-07-30T05:59:41;2.20;;;1.00;;
40729;SDS011;26418;50.070;8.436;2023-07-30T06:02:06;1.88;;;1.10;;
40729;SDS011;26418;50.070;8.436;2023-07-30T06:04:32;2.53;;;1.48;;
40729;SDS011;26418;50.070;8.436;2023-07-30T06:06:59;2.05;;;1.25;;
40729;SDS011;26418;50.070;8.436;2023-07-30T06:09:25;1.60;;;1.30;;
40729;SDS011;26418;50.070;8.436;2023-07-30T06:11:51;1.75;;;1.38;;
40729;SDS011;26418;50.070;8.436;2023-07-30T06:14:17;3.75;;;1.58;;
40729;SDS011;26418;50.070;8.436;2023-07-30T06:16:42;2.10;;;1.58;;
40729;SDS011;26418;50.070;8.436;2023-07-30T06:19:09;2.83;;;1.33;;
40729;SDS011;26418;50.070;8.436;2023-07-30T06:21:35;3.80;;;1.60;;
40729;SDS011;26418;50.070;8.436;2023-07-30T06:24:00;3.75;;;1.90;;
40729;SDS011;26418;50.070;8.436;2023-07-30T06:26:26;5.45;;;1.38;;
40729;SDS011;26418;50.070;8.436;2023-07-30T06:28:51;2.00;;;1.33;;
40729;SDS011;26418;50.070;8.436;2023-07-30T06:31:17;2.42;;;1.67;;
40729;SDS011;26418;50.070;8.436;2023-07-30T06:33:42;4.70;;;1.65;;
40729;SDS011;26418;50.070;8.436;2023-07-30T06:36:08;4.07;;;1.98;;
40729;SDS011;26418;50.070;8.436;2023-07-30T06:38:34;3.05;;;1.92;;
40729;SDS011;26418;50.070;8.436;2023-07-30T06:40:59;2.75;;;1.52;;
40729;SDS011;26418;50.070;8.436;2023-07-30T06:43:25;3.15;;;1.90;;
40729;SDS011;26418;50.070;8.436;2023-07-30T06:45:50;3.42;;;1.52;;
40729;SDS011;26418;50.070;8.436;2023-07-30T06:48:16;3.78;;;1.55;;
40729;SDS011;26418;50.070;8.436;2023-07-30T06:50:42;1.75;;;1.48;;
40729;SDS011;26418;50.070;8.436;2023-07-30T06:53:07;2.38;;;1.33;;
40729;SDS011;26418;50.070;8.436;2023-07-30T06:55:33;2.90;;;1.33;;
40729;SDS011;26418;50.070;8.436;2023-07-30T06:57:58;4.00;;;1.70;;
40729;SDS011;26418;50.070;8.436;2023-07-30T07:00:24;3.58;;;1.30;;
40729;SDS011;26418;50.070;8.436;2023-07-30T07:02:50;2.42;;;1.52;;
40729;SDS011;26418;50.070;8.436;2023-07-30T07:05:16;2.35;;;1.70;;
40729;SDS011;26418;50.070;8.436;2023-07-30T07:07:41;2.60;;;1.40;;
40729;SDS011;26418;50.070;8.436;2023-07-30T07:10:07;4.15;;;1.52;;
40729;SDS011;26418;50.070;8.436;2023-07-30T07:12:35;5.50;;;1.88;;
40729;SDS011;26418;50.070;8.436;2023-07-30T07:15:03;1.90;;;1.65;;
40729;SDS011;26418;50.070;8.436;2023-07-30T07:17:29;2.35;;;1.33;;
40729;SDS011;26418;50.070;8.436;2023-07-30T07:19:54;4.78;;;2.13;;
40729;SDS011;26418;50.070;8.436;2023-07-30T07:22:20;8.65;;;1.95;;
40729;SDS011;26418;50.070;8.436;2023-07-30T07:24:45;2.85;;;1.77;;
40729;SDS011;26418;50.070;8.436;2023-07-30T07:27:11;3.03;;;1.58;;
40729;SDS011;26418;50.070;8.436;2023-07-30T07:29:36;3.72;;;1.35;;
40729;SDS011;26418;50.070;8.436;2023-07-30T07:32:02;5.55;;;1.80;;
40729;SDS011;26418;50.070;8.436;2023-07-30T07:34:28;6.63;;;1.95;;
40729;SDS011;26418;50.070;8.436;2023-07-30T07:36:54;3.65;;;1.90;;
40729;SDS011;26418;50.070;8.436;2023-07-30T07:39:19;4.88;;;1.55;;
40729;SDS011;26418;50.070;8.436;2023-07-30T07:41:45;4.15;;;1.90;;
40729;SDS011;26418;50.070;8.436;2023-07-30T07:44:11;4.45;;;1.63;;
40729;SDS011;26418;50.070;8.436;2023-07-30T07:46:36;4.70;;;1.95;;
40729;SDS011;26418;50.070;8.436;2023-07-30T07:49:02;2.28;;;1.58;;
40729;SDS011;26418;50.070;8.436;2023-07-30T07:51:31;3.15;;;2.33;;
40729;SDS011;26418;50.070;8.436;2023-07-30T07:53:57;3.10;;;1.50;;
40729;SDS011;26418;50.070;8.436;2023-07-30T07:56:23;2.42;;;1.73;;
40729;SDS011;26418;50.070;8.436;2023-07-30T07:58:48;3.45;;;2.05;;
40729;SDS011;26418;50.070;8.436;2023-07-30T08:01:14;7.32;;;1.40;;
40729;SDS011;26418;50.070;8.436;2023-07-30T08:03:40;3.17;;;1.52;;
40729;SDS011;26418;50.070;8.436;2023-07-30T08:06:05;2.88;;;1.80;;
40729;SDS011;26418;50.070;8.436;2023-07-30T08:08:31;2.70;;;1.65;;
40729;SDS011;26418;50.070;8.436;2023-07-30T08:10:57;3.53;;;1.50;;
40729;SDS011;26418;50.070;8.436;2023-07-30T08:13:22;2.53;;;1.60;;
40729;SDS011;26418;50.070;8.436;2023-07-30T08:15:48;2.85;;;1.65;;
40729;SDS011;26418;50.070;8.436;2023-07-30T08:18:14;1.52;;;1.35;;
40729;SDS011;26418;50.070;8.436;2023-07-30T08:20:39;1.90;;;1.50;;
40729;SDS011;26418;50.070;8.436;2023-07-30T08:23:05;2.45;;;1.70;;
40729;SDS011;26418;50.070;8.436;2023-07-30T08:25:30;5.53;;;1.60;;
40729;SDS011;26418;50.070;8.436;2023-07-30T08:27:56;2.90;;;1.40;;
40729;SDS011;26418;50.070;8.436;2023-07-30T08:30:22;1.63;;;1.27;;
40729;SDS011;26418;50.070;8.436;2023-07-30T08:32:47;2.20;;;1.27;;
40729;SDS011;26418;50.070;8.436;2023-07-30T08:35:13;3.45;;;0.90;;
40729;SDS011;26418;50.070;8.436;2023-07-30T08:37:38;1.58;;;1.38;;
40729;SDS011;26418;50.070;8.436;2023-07-30T08:40:04;0.93;;;0.88;;
40729;SDS011;26418;50.070;8.436;2023-07-30T08:42:30;1.90;;;1.00;;
40729;SDS011;26418;50.070;8.436;2023-07-30T08:44:56;1.20;;;1.00;;
40729;SDS011;26418;50.070;8.436;2023-07-30T08:47:21;2.47;;;1.40;;
40729;SDS011;26418;50.070;8.436;2023-07-30T08:49:47;4.30;;;1.60;;
40729;SDS011;26418;50.070;8.436;2023-07-30T08:52:12;2.15;;;1.63;;
40729;SDS011;26418;50.070;8.436;2023-07-30T08:54:41;9.85;;;1.88;;
40729;SDS011;26418;50.070;8.436;2023-07-30T08:57:09;2.00;;;1.80;;
40729;SDS011;26418;50.070;8.436;2023-07-30T08:59:37;2.75;;;1.58;;
40729;SDS011;26418;50.070;8.436;2023-07-30T09:02:08;3.13;;;1.95;;
40729;SDS011;26418;50.070;8.436;2023-07-30T09:04:43;2.30;;;1.92;;
40729;SDS011;26418;50.070;8.436;2023-07-30T09:07:13;2.97;;;1.88;;
40729;SDS011;26418;50.070;8.436;2023-07-30T09:09:39;2.17;;;1.52;;
40729;SDS011;26418;50.070;8.436;2023-07-30T09:12:12;1.60;;;1.50;;
40729;SDS011;26418;50.070;8.436;2023-07-30T09:14:39;3.33;;;2.03;;
40729;SDS011;26418;50.070;8.436;2023-07-30T09:17:05;4.30;;;2.50;;
40729;SDS011;26418;50.070;8.436;2023-07-30T09:19:34;7.55;;;2.58;;
40729;SDS011;26418;50.070;8.436;2023-07-30T09:22:03;4.55;;;2.72;;
40729;SDS011;26418;50.070;8.436;2023-07-30T09:24:30;4.47;;;1.98;;
40729;SDS011;26418;50.070;8.436;2023-07-30T09:26:57;3.63;;;1.60;;
40729;SDS011;26418;50.070;8.436;2023-07-30T09:29:27;7.88;;;1.98;;
40729;SDS011;26418;50.070;8.436;2023-07-30T09:31:53;2.05;;;1.33;;
40729;SDS011;26418;50.070;8.436;2023-07-30T09:34:20;1.95;;;1.17;;
40729;SDS011;26418;50.070;8.436;2023-07-30T09:36:47;2.13;;;1.30;;
40729;SDS011;26418;50.070;8.436;2023-07-30T09:39:16;3.05;;;1.30;;
40729;SDS011;26418;50.070;8.436;2023-07-30T09:41:49;6.43;;;1.50;;
40729;SDS011;26418;50.070;8.436;2023-07-30T09:44:17;2.53;;;1.17;;
40729;SDS011;26418;50.070;8.436;2023-07-30T09:46:46;2.22;;;1.02;;
40729;SDS011;26418;50.070;8.436;2023-07-30T09:49:13;1.98;;;0.85;;
40729;SDS011;26418;50.070;8.436;2023-07-30T09:51:40;2.90;;;1.25;;
40729;SDS011;26418;50.070;8.436;2023-07-30T09:54:15;3.13;;;0.98;;
40729;SDS011;26418;50.070;8.436;2023-07-30T09:56:41;0.90;;;0.40;;
40729;SDS011;26418;50.070;8.436;2023-07-30T09:59:07;1.30;;;0.60;;
40729;SDS011;26418;50.070;8.436;2023-07-30T10:01:43;2.67;;;0.32;;
40729;SDS011;26418;50.070;8.436;2023-07-30T10:04:11;1.05;;;0.63;;
40729;SDS011;26418;50.070;8.436;2023-07-30T10:06:38;3.17;;;0.43;;
40729;SDS011;26418;50.070;8.436;2023-07-30T10:09:07;2.60;;;0.52;;
40729;SDS011;26418;50.070;8.436;2023-07-30T10:11:35;0.65;;;0.50;;
40729;SDS011;26418;50.070;8.436;2023-07-30T10:14:02;1.75;;;0.40;;
40729;SDS011;26418;50.070;8.436;2023-07-30T10:16:28;0.93;;;0.57;;
40729;SDS011;26418;50.070;8.436;2023-07-30T10:18:58;2.08;;;0.60;;
40729;SDS011;26418;50.070;8.436;2023-07-30T10:21:24;2.30;;;0.50;;
40729;SDS011;26418;50.070;8.436;2023-07-30T10:24:04;2.50;;;0.60;;
40729;SDS011;26418;50.070;8.436;2023-07-30T10:26:31;1.90;;;0.70;;
40729;SDS011;26418;50.070;8.436;2023-07-30T10:31:38;1.98;;;0.60;;
40729;SDS011;26418;50.070;8.436;2023-07-30T10:34:08;1.38;;;0.82;;
40729;SDS011;26418;50.070;8.436;2023-07-30T10:36:48;6.43;;;0.80;;
40729;SDS011;26418;50.070;8.436;2023-07-30T10:41:44;3.90;;;0.70;;
40729;SDS011;26418;50.070;8.436;2023-07-30T10:44:44;6.53;;;1.10;;
40729;SDS011;26418;50.070;8.436;2023-07-30T10:47:08;2.80;;;0.95;;
40729;SDS011;26418;50.070;8.436;2023-07-30T10:49:37;2.45;;;1.08;;
40729;SDS011;26418;50.070;8.436;2023-07-30T10:52:03;2.92;;;1.17;;
40729;SDS011;26418;50.070;8.436;2023-07-30T10:54:35;2.58;;;1.10;;
40729;SDS011;26418;50.070;8.436;2023-07-30T10:57:02;2.58;;;0.90;;
40729;SDS011;26418;50.070;8.436;2023-07-30T10:59:33;4.95;;;1.27;;
40729;SDS011;26418;50.070;8.436;2023-07-30T11:02:01;3.30;;;0.77;;
40729;SDS011;26418;50.070;8.436;2023-07-30T11:04:26;8.52;;;1.27;;
40729;SDS011;26418;50.070;8.436;2023-07-30T11:06:51;2.95;;;1.05;;
40729;SDS011;26418;50.070;8.436;2023-07-30T11:09:20;4.15;;;1.10;;
40729;SDS011;26418;50.070;8.436;2023-07-30T11:11:48;3.70;;;1.30;;
40729;SDS011;26418;50.070;8.436;2023-07-30T11:14:14;2.25;;;1.10;;
40729;SDS011;26418;50.070;8.436;2023-07-30T11:16:47;3.25;;;1.10;;
40729;SDS011;26418;50.070;8.436;2023-07-30T11:19:16;7.45;;;1.40;;
40729;SDS011;26418;50.070;8.436;2023-07-30T11:21:48;5.07;;;1.35;;
40729;SDS011;26418;50.070;8.436;2023-07-30T11:24:15;1.67;;;1.08;;
40729;SDS011;26418;50.070;8.436;2023-07-30T11:26:41;4.65;;;1.33;;
40729;SDS011;26418;50.070;8.436;2023-07-30T11:29:16;3.45;;;1.58;;
40729;SDS011;26418;50.070;8.436;2023-07-30T11:31:43;5.57;;;1.38;;
40729;SDS011;26418;50.070;8.436;2023-07-30T11:34:10;1.63;;;1.00;;
40729;SDS011;26418;50.070;8.436;2023-07-30T11:36:37;4.45;;;1.17;;
40729;SDS011;26418;50.070;8.436;2023-07-30T11:39:03;1.95;;;1.10;;
40729;SDS011;26418;50.070;8.436;2023-07-30T11:41:29;4.22;;;1.65;;
40729;SDS011;26418;50.070;8.436;2023-07-30T11:43:55;5.90;;;1.35;;
40729;SDS011;26418;50.070;8.436;2023-07-30T11:46:21;5.55;;;2.63;;
40729;SDS011;26418;50.070;8.436;2023-07-30T11:48:48;11.68;;;1.92;;
40729;SDS011;26418;50.070;8.436;2023-07-30T11:51:25;3.47;;;0.93;;
40729;SDS011;26418;50.070;8.436;2023-07-30T11:56:28;7.43;;;1.20;;
40729;SDS011;26418;50.070;8.436;2023-07-30T11:58:59;5.60;;;1.60;;
40729;SDS011;26418;50.070;8.436;2023-07-30T12:01:25;3.42;;;1.10;;
40729;SDS011;26418;50.070;8.436;2023-07-30T12:03:58;7.60;;;1.48;;
40729;SDS011;26418;50.070;8.436;2023-07-30T12:06:37;5.18;;;1.50;;
40729;SDS011;26418;50.070;8.436;2023-07-30T12:09:10;13.00;;;1.45;;
40729;SDS011;26418;50.070;8.436;2023-07-30T12:11:43;2.33;;;0.93;;
40729;SDS011;26418;50.070;8.436;2023-07-30T12:14:11;4.22;;;1.13;;
40729;SDS011;26418;50.070;8.436;2023-07-30T12:16:36;4.30;;;1.13;;
40729;SDS011;26418;50.070;8.436;2023-07-30T12:19:02;5.10;;;1.40;;
40729;SDS011;26418;50.070;8.436;2023-07-30T12:21:28;3.13;;;1.27;;
40729;SDS011;26418;50.070;8.436;2023-07-30T12:23:53;6.75;;;1.40;;
40729;SDS011;26418;50.070;8.436;2023-07-30T12:26:19;4.18;;;1.38;;
40729;SDS011;26418;50.070;8.436;2023-07-30T12:28:45;3.63;;;0.95;;
40729;SDS011;26418;50.070;8.436;2023-07-30T12:31:10;4.95;;;1.35;;
40729;SDS011;26418;50.070;8.436;2023-07-30T12:33:36;5.13;;;1.58;;
40729;SDS011;26418;50.070;8.436;2023-07-30T12:36:01;4.78;;;1.50;;
40729;SDS011;26418;50.070;8.436;2023-07-30T12:38:27;3.58;;;1.30;;
40729;SDS011;26418;50.070;8.436;2023-07-30T12:40:52;3.63;;;1.40;;
40729;SDS011;26418;50.070;8.436;2023-07-30T12:43:18;2.85;;;1.08;;
40729;SDS011;26418;50.070;8.436;2023-07-30T12:45:45;2.53;;;1.38;;
40729;SDS011;26418;50.070;8.436;2023-07-30T12:48:11;5.47;;;1.48;;
40729;SDS011;26418;50.070;8.436;2023-07-30T12:50:37;4.13;;;1.08;;
40729;SDS011;26418;50.070;8.436;2023-07-30T12:53:02;3.25;;;1.10;;
40729;SDS011;26418;50.070;8.436;2023-07-30T12:55:29;4.95;;;1.35;;
40729;SDS011;26418;50.070;8.436;2023-07-30T12:57:54;3.17;;;1.23;;
40729;SDS011;26418;50.070;8.436;2023-07-30T13:00:20;4.40;;;1.15;;
40729;SDS011;26418;50.070;8.436;2023-07-30T13:02:46;4.50;;;1.40;;
40729;SDS011;26418;50.070;8.436;2023-07-30T13:05:11;3.83;;;1.20;;
40729;SDS011;26418;50.070;8.436;2023-07-30T13:07:38;3.88;;;1.38;;
40729;SDS011;26418;50.070;8.436;2023-07-30T13:10:08;3.80;;;1.13;;
40729;SDS011;26418;50.070;8.436;2023-07-30T13:12:34;5.20;;;1.58;;
40729;SDS011;26418;50.070;8.436;2023-07-30T13:15:01;4.13;;;1.20;;
40729;SDS011;26418;50.070;8.436;2023-07-30T13:17:27;3.95;;;1.48;;
40729;SDS011;26418;50.070;8.436;2023-07-30T13:19:53;5.38;;;1.20;;
40729;SDS011;26418;50.070;8.436;2023-07-30T13:22:18;7.50;;;1.17;;
40729;SDS011;26418;50.070;8.436;2023-07-30T13:24:44;2.92;;;1.20;;
40729;SDS011;26418;50.070;8.436;2023-07-30T13:27:09;6.03;;;1.17;;
40729;SDS011;26418;50.070;8.436;2023-07-30T13:29:35;6.63;;;1.63;;
40729;SDS011;26418;50.070;8.436;2023-07-30T13:32:01;3.15;;;1.10;;
40729;SDS011;26418;50.070;8.436;2023-07-30T13:34:27;3.42;;;1.30;;
40729;SDS011;26418;50.070;8.436;2023-07-30T13:36:52;2.58;;;1.00;;
40729;SDS011;26418;50.070;8.436;2023-07-30T13:39:18;3.28;;;1.33;;
40729;SDS011;26418;50.070;8.436;2023-07-30T13:41:43;4.70;;;1.23;;
40729;SDS011;26418;50.070;8.436;2023-07-30T13:44:09;6.63;;;1.45;;
40729;SDS011;26418;50.070;8.436;2023-07-30T13:46:36;3.70;;;1.38;;
40729;SDS011;26418;50.070;8.436;2023-07-30T13:49:02;4.35;;;1.40;;
40729;SDS011;26418;50.070;8.436;2023-07-30T13:51:28;5.75;;;1.60;;
40729;SDS011;26418;50.070;8.436;2023-07-30T13:53:57;3.67;;;0.90;;
40729;SDS011;26418;50.070;8.436;2023-07-30T13:56:25;4.88;;;1.27;;
40729;SDS011;26418;50.070;8.436;2023-07-30T13:58:51;2.20;;;1.10;;
40729;SDS011;26418;50.070;8.436;2023-07-30T14:01:16;4.35;;;1.10;;
40729;SDS011;26418;50.070;8.436;2023-07-30T14:03:43;2.15;;;1.02;;
40729;SDS011;26418;50.070;8.436;2023-07-30T14:06:09;6.47;;;1.30;;
40729;SDS011;26418;50.070;8.436;2023-07-30T14:08:35;3.78;;;1.33;;
40729;SDS011;26418;50.070;8.436;2023-07-30T14:11:00;2.60;;;1.17;;
40729;SDS011;26418;50.070;8.436;2023-07-30T14:13:26;5.70;;;1.23;;
40729;SDS011;26418;50.070;8.436;2023-07-30T14:15:52;3.85;;;1.00;;
40729;SDS011;26418;50.070;8.436;2023-07-30T14:18:17;3.80;;;1.17;;
40729;SDS011;26418;50.070;8.436;2023-07-30T14:20:43;4.63;;;1.33;;
40729;SDS011;26418;50.070;8.436;2023-07-30T14:23:09;5.32;;;1.38;;
40729;SDS011;26418;50.070;8.436;2023-07-30T14:25:35;6.32;;;1.35;;
40729;SDS011;26418;50.070;8.436;2023-07-30T14:28:01;4.68;;;1.67;;
40729;SDS011;26418;50.070;8.436;2023-07-30T14:30:26;10.90;;;1.83;;
40729;SDS011;26418;50.070;8.436;2023-07-30T14:32:52;3.80;;;1.10;;
40729;SDS011;26418;50.070;8.436;2023-07-30T14:35:18;4.30;;;1.42;;
40729;SDS011;26418;50.070;8.436;2023-07-30T14:37:43;3.33;;;1.15;;
40729;SDS011;26418;50.070;8.436;2023-07-30T14:40:09;3.70;;;1.30;;
40729;SDS011;26418;50.070;8.436;2023-07-30T14:42:35;3.70;;;1.55;;
40729;SDS011;26418;50.070;8.436;2023-07-30T14:45:00;6.30;;;1.40;;
40729;SDS011;26418;50.070;8.436;2023-07-30T14:47:26;5.00;;;1.15;;
40729;SDS011;26418;50.070;8.436;2023-07-30T14:49:51;6.00;;;1.60;;
40729;SDS011;26418;50.070;8.436;2023-07-30T14:52:17;2.40;;;1.10;;